Time;durP1;ratioP1;P1;durP2;ratioP2;P2;SDS_P1;SDS_P2;PMS_P1;PMS_P2;Temp;Humidity;BMP_temperature;BMP_pressure;BME280_temperature;BME280_humidity;BME280_pressure;Samples;Min_cycle;Max_cycle;Signal;HPM_P1;HPM_P2
2024/03/01 00:01:56;;;;;;;26.30;17.40;;;2.10;99.90;;;;;;5024497;28;20238;-64
2024/03/01 00:04:23;;;;;;;24.83;17.83;;;2.10;99.90;;;;;;5038875;28;20314;-63
2024/03/01 00:06:50;;;;;;;25.48;17.98;;;2.00;99.90;;;;;;5042569;28;20753;-64
2024/03/01 00:09:17;;;;;;;29.15;20.90;;;2.00;99.90;;;;;;5045418;28;20245;-64
2024/03/01 00:11:44;;;;;;;25.45;18.70;;;2.00;99.90;;;;;;5028317;28;20215;-64
2024/03/01 00:14:11;;;;;;;23.98;15.90;;;2.00;99.90;;;;;;5039388;28;20258;-63
2024/03/01 00:16:38;;;;;;;26.77;19.65;;;1.90;99.90;;;;;;5028321;28;20221;-64
2024/03/01 00:19:06;;;;;;;23.58;19.10;;;1.90;99.90;;;;;;5028039;28;20596;-64
2024/03/01 00:21:33;;;;;;;25.25;17.63;;;1.90;99.90;;;;;;5029223;28;20206;-64
2024/03/01 00:24:00;;;;;;;33.40;20.67;;;1.90;99.90;;;;;;5039770;28;20227;-64
2024/03/01 00:26:26;;;;;;;31.88;22.13;;;1.90;99.90;;;;;;5042234;28;20206;-64
2024/03/01 00:28:53;;;;;;;26.95;17.90;;;1.80;99.90;;;;;;5038557;28;20215;-64
2024/03/01 00:31:20;;;;;;;27.73;19.27;;;1.80;99.90;;;;;;5028063;28;20215;-64
2024/03/01 00:33:47;;;;;;;25.92;18.92;;;1.80;99.90;;;;;;5038800;28;20245;-64
2024/03/01 00:36:15;;;;;;;27.88;17.90;;;1.80;99.90;;;;;;5061412;22;20244;-60
2024/03/01 00:38:42;;;;;;;31.27;17.90;;;1.80;99.90;;;;;;5046487;28;20202;-61
2024/03/01 00:41:09;;;;;;;28.90;17.27;;;1.80;99.90;;;;;;5042392;28;20229;-60
2024/03/01 00:43:36;;;;;;;28.17;20.83;;;1.70;99.90;;;;;;5032410;28;20615;-60
2024/03/01 00:46:03;;;;;;;24.65;17.73;;;1.70;99.90;;;;;;5038107;28;20315;-61
2024/03/01 00:48:30;;;;;;;27.35;18.88;;;1.70;99.90;;;;;;5028255;28;20289;-62
2024/03/01 00:50:57;;;;;;;32.88;21.23;;;1.70;99.90;;;;;;5044778;28;20687;-60
2024/03/01 00:53:25;;;;;;;30.23;18.40;;;1.70;99.90;;;;;;5036868;28;20214;-61
2024/03/01 00:55:52;;;;;;;26.35;17.83;;;1.70;99.90;;;;;;5027925;28;20317;-58
2024/03/01 00:58:19;;;;;;;33.08;18.92;;;1.70;99.90;;;;;;5042817;28;20218;-62
2024/03/01 01:00:46;;;;;;;24.90;17.85;;;1.70;99.90;;;;;;5033636;28;20226;-60
2024/03/01 01:03:12;;;;;;;28.52;19.70;;;1.70;99.90;;;;;;5033406;28;20264;-62
2024/03/01 01:05:39;;;;;;;22.00;16.90;;;1.60;99.90;;;;;;5033168;28;20262;-61
2024/03/01 01:08:07;;;;;;;27.00;17.77;;;1.60;99.90;;;;;;5032794;28;21015;-60
2024/03/01 01:10:35;;;;;;;29.05;17.77;;;1.60;99.90;;;;;;5041122;28;20214;-61
2024/03/01 01:13:02;;;;;;;26.35;19.40;;;1.60;99.90;;;;;;5043495;28;20305;-60
2024/03/01 01:15:29;;;;;;;31.13;18.98;;;1.60;99.90;;;;;;5038831;28;20256;-61
2024/03/01 01:17:55;;;;;;;27.75;15.98;;;1.60;99.90;;;;;;5026495;28;20219;-62
2024/03/01 01:20:22;;;;;;;23.65;15.90;;;1.60;99.90;;;;;;5043926;28;20217;-61
2024/03/01 01:22:50;;;;;;;22.50;17.48;;;1.60;99.90;;;;;;5027291;28;20227;-60
2024/03/01 01:25:17;;;;;;;20.88;15.40;;;1.60;99.90;;;;;;5039639;28;20254;-61
2024/03/01 01:27:45;;;;;;;21.30;14.27;;;1.60;99.90;;;;;;5038805;28;20203;-61
2024/03/01 01:30:13;;;;;;;25.75;16.63;;;1.60;99.90;;;;;;5030879;28;20206;-60
2024/03/01 01:32:40;;;;;;;27.27;17.98;;;1.60;99.90;;;;;;5039933;28;20264;-62
2024/03/01 01:35:07;;;;;;;25.23;17.77;;;1.60;99.90;;;;;;5044498;28;20321;-61
2024/03/01 01:37:34;;;;;;;23.00;19.08;;;1.60;99.90;;;;;;5037993;28;20288;-59
2024/03/01 01:40:01;;;;;;;19.95;16.02;;;1.60;99.90;;;;;;5029849;28;20199;-58
2024/03/01 01:42:28;;;;;;;27.80;19.52;;;1.50;99.90;;;;;;5030865;28;20632;-59
2024/03/01 01:44:56;;;;;;;31.90;19.35;;;1.50;99.90;;;;;;5031465;28;20234;-61
2024/03/01 01:47:24;;;;;;;26.25;15.63;;;1.50;99.90;;;;;;5031558;28;20284;-60
2024/03/01 01:49:51;;;;;;;29.65;19.25;;;1.50;99.90;;;;;;5031543;28;20233;-61
2024/03/01 01:52:18;;;;;;;31.35;17.85;;;1.50;99.90;;;;;;5031201;28;20211;-60
2024/03/01 01:54:46;;;;;;;25.08;17.27;;;1.50;99.90;;;;;;5031564;28;20231;-58
2024/03/01 01:57:14;;;;;;;30.48;19.05;;;1.50;99.90;;;;;;5031692;28;20708;-62
2024/03/01 01:59:44;;;;;;;25.20;17.05;;;1.50;99.90;;;;;;5031349;28;20301;-62
2024/03/01 02:02:12;;;;;;;24.27;18.10;;;1.40;99.90;;;;;;5031751;28;20300;-60
2024/03/01 02:04:40;;;;;;;30.88;20.15;;;1.40;99.90;;;;;;5031137;28;20288;-61
2024/03/01 02:07:07;;;;;;;28.35;17.95;;;1.40;99.90;;;;;;5031376;28;20217;-62
2024/03/01 02:09:34;;;;;;;22.83;16.45;;;1.40;99.90;;;;;;5030903;28;20304;-59
2024/03/01 02:12:01;;;;;;;29.75;17.20;;;1.40;99.90;;;;;;5031066;28;20291;-62
2024/03/01 02:14:28;;;;;;;22.63;18.65;;;1.40;99.90;;;;;;5030323;28;20664;-60
2024/03/01 02:16:55;;;;;;;28.17;19.75;;;1.40;99.90;;;;;;5031002;28;20230;-61
2024/03/01 02:19:24;;;;;;;28.95;17.98;;;1.40;99.90;;;;;;5030950;28;20598;-59
2024/03/01 02:21:58;;;;;;;33.45;17.90;;;1.30;99.90;;;;;;5031079;28;20309;-61
2024/03/01 02:24:27;;;;;;;31.83;19.50;;;1.30;99.90;;;;;;5030342;28;20292;-61
2024/03/01 02:26:55;;;;;;;32.30;19.08;;;1.30;99.90;;;;;;5030937;28;20285;-60
2024/03/01 02:29:22;;;;;;;34.20;19.75;;;1.30;99.90;;;;;;5030880;28;20294;-60
2024/03/01 02:31:50;;;;;;;31.15;19.85;;;1.30;99.90;;;;;;5031184;28;20297;-58
2024/03/01 02:34:17;;;;;;;30.88;19.15;;;1.30;99.90;;;;;;5030270;28;20224;-61
2024/03/01 02:36:44;;;;;;;27.02;16.77;;;1.30;99.90;;;;;;5030871;28;20215;-57
2024/03/01 02:39:17;;;;;;;19.92;14.65;;;1.30;99.90;;;;;;5030290;28;20254;-59
2024/03/01 02:41:45;;;;;;;23.10;16.63;;;1.20;99.90;;;;;;5030388;28;20218;-60
2024/03/01 02:44:12;;;;;;;24.27;16.75;;;1.20;99.90;;;;;;5030092;28;20238;-61
2024/03/01 02:46:40;;;;;;;26.80;18.70;;;1.20;99.90;;;;;;5030424;28;20219;-61
2024/03/01 02:49:06;;;;;;;20.70;15.35;;;1.20;99.90;;;;;;5030267;28;20302;-61
2024/03/01 02:51:34;;;;;;;23.48;16.52;;;1.20;99.90;;;;;;5030454;28;20301;-62
2024/03/01 02:54:01;;;;;;;26.85;18.25;;;1.10;99.90;;;;;;5029769;28;20207;-59
2024/03/01 02:56:27;;;;;;;26.20;16.77;;;1.10;99.90;;;;;;5030549;28;20231;-60
2024/03/01 02:58:56;;;;;;;24.88;18.60;;;1.10;99.90;;;;;;5030308;28;20207;-58
2024/03/01 03:01:23;;;;;;;28.75;21.73;;;1.10;99.90;;;;;;5030038;28;20207;-61
2024/03/01 03:03:50;;;;;;;28.98;18.10;;;1.10;99.90;;;;;;5029750;28;20231;-61
2024/03/01 03:06:17;;;;;;;31.25;17.92;;;1.10;99.90;;;;;;5030256;28;20233;-60
2024/03/01 03:08:43;;;;;;;29.73;19.83;;;1.00;99.90;;;;;;5030364;28;20211;-61
2024/03/01 03:11:10;;;;;;;24.25;17.67;;;1.10;99.90;;;;;;5030100;28;20589;-61
2024/03/01 03:13:37;;;;;;;25.25;19.55;;;1.10;99.90;;;;;;5029479;28;20248;-62
2024/03/01 03:16:06;;;;;;;30.17;19.08;;;1.10;99.90;;;;;;5029805;28;20241;-59
2024/03/01 03:18:33;;;;;;;29.48;18.55;;;1.00;99.90;;;;;;5029962;28;20217;-61
2024/03/01 03:21:00;;;;;;;29.50;20.13;;;1.00;99.90;;;;;;5029576;28;20211;-60
2024/03/01 03:23:27;;;;;;;27.45;18.60;;;1.00;99.90;;;;;;5029223;28;20744;-61
2024/03/01 03:25:54;;;;;;;26.92;19.33;;;1.00;99.90;;;;;;5029919;28;20348;-58
2024/03/01 03:28:21;;;;;;;32.55;20.75;;;1.00;99.90;;;;;;5029561;28;20238;-60
2024/03/01 03:30:48;;;;;;;28.60;19.90;;;1.00;99.90;;;;;;5029543;28;20211;-60
2024/03/01 03:33:17;;;;;;;25.65;18.75;;;1.00;99.90;;;;;;5029191;28;20221;-59
2024/03/01 03:35:44;;;;;;;20.13;17.55;;;0.90;99.90;;;;;;5029508;28;20245;-60
2024/03/01 03:38:10;;;;;;;29.20;18.70;;;0.90;99.90;;;;;;5029834;28;20532;-60
2024/03/01 03:40:37;;;;;;;30.02;18.25;;;0.90;99.90;;;;;;5029729;28;20300;-60
2024/03/01 03:43:04;;;;;;;35.15;21.48;;;0.90;99.90;;;;;;5028979;28;20217;-59
2024/03/01 03:45:31;;;;;;;25.50;18.10;;;0.90;99.90;;;;;;5029370;28;20235;-57
2024/03/01 03:47:58;;;;;;;29.85;17.83;;;0.90;99.90;;;;;;5029268;28;20215;-61
2024/03/01 03:50:26;;;;;;;30.20;19.23;;;0.90;99.90;;;;;;5029358;28;20217;-61
2024/03/01 03:52:53;;;;;;;26.50;18.15;;;0.80;99.90;;;;;;5028811;28;20214;-60
2024/03/01 03:55:20;;;;;;;29.20;17.58;;;0.80;99.90;;;;;;5028708;28;20227;-62
2024/03/01 03:57:47;;;;;;;27.20;16.83;;;0.80;99.90;;;;;;5029287;28;20215;-61
2024/03/01 04:00:15;;;;;;;27.50;17.92;;;0.80;99.90;;;;;;5028959;28;20648;-61
2024/03/01 04:02:43;;;;;;;32.50;18.55;;;0.80;99.90;;;;;;5028550;28;20253;-61
2024/03/01 04:05:10;;;;;;;29.75;17.17;;;0.80;99.90;;;;;;5029120;28;20286;-61
2024/03/01 04:07:38;;;;;;;25.10;18.15;;;0.80;99.90;;;;;;5029208;28;20211;-62
2024/03/01 04:10:06;;;;;;;28.80;19.20;;;0.80;99.90;;;;;;5029157;28;20215;-61
2024/03/01 04:12:33;;;;;;;24.25;18.25;;;0.80;99.90;;;;;;5028701;28;20206;-62
2024/03/01 04:15:00;;;;;;;28.50;17.95;;;0.80;99.90;;;;;;5028960;28;20318;-61
2024/03/01 04:17:28;;;;;;;25.65;15.85;;;0.80;99.90;;;;;;5029161;28;20217;-61
2024/03/01 04:19:55;;;;;;;24.67;19.00;;;0.70;99.90;;;;;;5025937;28;20611;-60
2024/03/01 04:22:22;;;;;;;28.15;17.27;;;0.70;99.90;;;;;;5028056;28;20854;-61
2024/03/01 04:24:50;;;;;;;26.25;18.95;;;0.70;99.90;;;;;;5028493;28;20235;-61
2024/03/01 04:27:17;;;;;;;29.13;18.23;;;0.70;99.90;;;;;;5028852;28;20219;-61
2024/03/01 04:29:44;;;;;;;29.40;19.92;;;0.70;99.90;;;;;;5028240;28;20211;-60
2024/03/01 04:32:11;;;;;;;22.08;16.55;;;0.70;99.90;;;;;;5028418;28;20298;-61
2024/03/01 04:34:37;;;;;;;29.30;18.98;;;0.70;99.90;;;;;;5028331;28;20318;-60
2024/03/01 04:37:04;;;;;;;25.08;19.88;;;0.70;99.90;;;;;;5028514;28;20230;-60
2024/03/01 04:39:32;;;;;;;19.88;15.68;;;0.70;99.90;;;;;;5028527;28;20588;-62
2024/03/01 04:42:00;;;;;;;24.00;17.92;;;0.70;99.90;;;;;;5020418;28;20213;-62
2024/03/01 04:44:27;;;;;;;28.73;18.65;;;0.80;99.90;;;;;;5028150;28;20234;-61
2024/03/01 04:46:56;;;;;;;29.35;19.08;;;0.80;99.90;;;;;;5028781;28;20765;-59
2024/03/01 04:49:22;;;;;;;22.48;16.40;;;0.80;99.90;;;;;;5028421;28;20873;-61
2024/03/01 04:51:49;;;;;;;22.30;16.77;;;0.80;99.90;;;;;;5028427;28;20210;-62
2024/03/01 04:54:16;;;;;;;27.42;17.92;;;0.80;99.90;;;;;;5027983;28;20211;-61
2024/03/01 04:56:46;;;;;;;24.42;17.30;;;0.90;99.90;;;;;;5028448;28;20589;-61
2024/03/01 04:59:14;;;;;;;30.83;19.23;;;0.90;99.90;;;;;;5028548;28;20273;-61
2024/03/01 05:01:41;;;;;;;31.20;18.52;;;0.90;99.90;;;;;;5028330;28;20214;-61
2024/03/01 05:04:08;;;;;;;28.83;18.63;;;0.90;99.90;;;;;;5027601;28;20257;-58
2024/03/01 05:06:36;;;;;;;29.20;16.25;;;0.90;99.90;;;;;;5031819;28;20215;-61
2024/03/01 05:09:06;;;;;;;20.63;12.98;;;1.00;99.90;;;;;;5032143;28;20211;-61
2024/03/01 05:11:35;;;;;;;21.80;14.55;;;1.00;99.90;;;;;;5032437;28;20217;-61
2024/03/01 05:14:02;;;;;;;21.65;16.15;;;1.00;99.90;;;;;;5031816;28;20221;-60
2024/03/01 05:16:31;;;;;;;19.85;14.45;;;1.10;99.90;;;;;;5032160;28;20237;-62
2024/03/01 05:18:58;;;;;;;18.00;13.23;;;1.10;99.90;;;;;;5032633;28;20214;-62
2024/03/01 05:21:24;;;;;;;25.13;15.68;;;1.10;99.90;;;;;;5032419;28;20214;-61
2024/03/01 05:23:51;;;;;;;30.98;16.63;;;1.10;99.90;;;;;;5031553;28;20211;-62
2024/03/01 05:26:18;;;;;;;28.38;15.80;;;1.20;99.90;;;;;;5032111;28;20239;-62
2024/03/01 05:28:45;;;;;;;23.05;16.95;;;1.20;99.90;;;;;;5032066;28;20210;-59
2024/03/01 05:31:12;;;;;;;27.40;16.00;;;1.20;99.90;;;;;;5031529;28;20215;-60
2024/03/01 05:33:40;;;;;;;26.98;17.77;;;1.30;99.90;;;;;;5031595;28;20223;-58
2024/03/01 05:36:07;;;;;;;33.22;19.38;;;1.30;99.90;;;;;;5031664;28;20235;-60
2024/03/01 05:38:34;;;;;;;20.27;15.68;;;1.30;99.90;;;;;;5031758;28;20711;-61
2024/03/01 05:41:01;;;;;;;27.92;19.50;;;1.30;99.90;;;;;;5031536;28;20203;-60
2024/03/01 05:43:28;;;;;;;22.58;16.13;;;1.40;99.90;;;;;;5031215;28;20214;-61
2024/03/01 05:45:57;;;;;;;29.05;16.70;;;1.40;99.90;;;;;;5031436;28;20231;-61
2024/03/01 05:48:24;;;;;;;23.88;18.13;;;1.40;99.90;;;;;;5031830;28;20218;-62
2024/03/01 05:50:52;;;;;;;23.55;16.73;;;1.40;99.90;;;;;;5031673;28;20207;-60
2024/03/01 05:53:19;;;;;;;24.38;16.42;;;1.40;99.90;;;;;;5031253;28;20694;-62
2024/03/01 05:55:46;;;;;;;29.38;16.10;;;1.40;99.90;;;;;;5031448;28;20231;-61
2024/03/01 05:58:13;;;;;;;28.70;14.43;;;1.40;99.90;;;;;;5031451;28;20298;-60
2024/03/01 06:00:41;;;;;;;24.05;14.57;;;1.30;99.90;;;;;;5031460;28;20207;-60
2024/03/01 06:03:08;;;;;;;22.40;15.50;;;1.30;99.90;;;;;;5030854;28;20446;-62
2024/03/01 06:05:35;;;;;;;20.65;15.68;;;1.30;99.90;;;;;;5031115;28;20262;-59
2024/03/01 06:08:04;;;;;;;22.77;15.73;;;1.30;99.90;;;;;;5031274;28;20211;-61
2024/03/01 06:10:31;;;;;;;25.13;15.55;;;1.30;99.90;;;;;;5030931;28;20211;-60
2024/03/01 06:12:58;;;;;;;23.33;17.00;;;1.30;99.90;;;;;;5030616;28;20441;-60
2024/03/01 06:15:26;;;;;;;23.27;17.27;;;1.30;99.90;;;;;;5031224;28;20230;-59
2024/03/01 06:17:52;;;;;;;26.65;17.02;;;1.30;99.90;;;;;;5030354;28;20215;-62
2024/03/01 06:20:19;;;;;;;23.27;15.07;;;1.30;99.90;;;;;;5030936;28;20215;-59
2024/03/01 06:22:46;;;;;;;28.98;16.05;;;1.30;99.90;;;;;;5030603;28;20259;-62
2024/03/01 06:25:14;;;;;;;28.40;17.15;;;1.30;99.90;;;;;;5030925;28;20235;-58
2024/03/01 06:27:41;;;;;;;22.85;18.27;;;1.40;99.90;;;;;;5031229;28;20218;-60
2024/03/01 06:30:09;;;;;;;27.50;18.42;;;1.40;99.90;;;;;;5030805;28;20225;-61
2024/03/01 06:32:35;;;;;;;26.15;17.77;;;1.40;99.90;;;;;;5030243;28;20676;-60
2024/03/01 06:35:03;;;;;;;24.70;15.88;;;1.40;99.90;;;;;;5052706;22;20237;-64
2024/03/01 06:37:30;;;;;;;25.15;18.08;;;1.40;99.90;;;;;;5038958;28;20654;-62
2024/03/01 06:39:57;;;;;;;33.00;20.88;;;1.40;99.90;;;;;;5044790;28;20202;-61
2024/03/01 06:42:25;;;;;;;30.55;18.45;;;1.40;99.90;;;;;;5045041;28;20541;-62
2024/03/01 06:44:52;;;;;;;27.77;17.08;;;1.50;99.90;;;;;;5046210;28;20234;-61
2024/03/01 06:47:19;;;;;;;28.10;17.15;;;1.50;99.90;;;;;;5030740;28;20352;-61
2024/03/01 06:49:46;;;;;;;26.40;17.25;;;1.50;99.90;;;;;;5030266;28;20211;-61
2024/03/01 06:52:13;;;;;;;19.25;15.63;;;1.50;99.90;;;;;;5030152;28;20210;-62
2024/03/01 06:54:40;;;;;;;27.30;17.50;;;1.50;99.90;;;;;;5027741;28;20199;-61
2024/03/01 06:57:07;;;;;;;32.83;17.92;;;1.60;99.90;;;;;;5023271;28;20209;-62
2024/03/01 06:59:36;;;;;;;25.27;18.63;;;1.60;99.90;;;;;;5030316;28;20207;-62
2024/03/01 07:02:03;;;;;;;22.25;16.05;;;1.60;99.90;;;;;;5030649;28;20238;-61
2024/03/01 07:04:29;;;;;;;32.00;18.63;;;1.60;99.90;;;;;;5029587;28;20214;-62
2024/03/01 07:06:57;;;;;;;25.40;18.20;;;1.70;99.90;;;;;;5030314;28;20206;-62
2024/03/01 07:09:24;;;;;;;33.22;18.65;;;1.70;99.90;;;;;;5030020;28;20210;-61
2024/03/01 07:11:51;;;;;;;30.75;18.48;;;1.70;99.90;;;;;;5030209;28;20566;-61
2024/03/01 07:14:17;;;;;;;33.88;19.77;;;1.80;99.90;;;;;;5029537;28;20326;-61
2024/03/01 07:16:46;;;;;;;28.55;17.40;;;1.80;99.90;;;;;;5029895;28;20234;-61
2024/03/01 07:19:13;;;;;;;32.17;22.30;;;1.90;99.90;;;;;;5029745;28;20215;-62
2024/03/01 07:21:40;;;;;;;25.45;19.15;;;1.90;99.90;;;;;;5029938;28;20215;-61
2024/03/01 07:24:07;;;;;;;27.38;18.30;;;2.00;99.90;;;;;;5025020;28;20264;-61
2024/03/01 07:26:34;;;;;;;28.23;19.48;;;2.00;99.90;;;;;;5021365;28;20230;-62
2024/03/01 07:29:02;;;;;;;29.77;17.80;;;2.00;99.90;;;;;;5029557;28;20207;-62
2024/03/01 07:31:29;;;;;;;28.35;18.70;;;2.00;99.90;;;;;;5030201;28;20712;-61
2024/03/01 07:33:57;;;;;;;24.85;19.33;;;2.10;99.90;;;;;;5029536;28;20215;-62
2024/03/01 07:36:24;;;;;;;25.70;19.17;;;2.20;99.90;;;;;;5029662;28;20305;-62
2024/03/01 07:38:50;;;;;;;30.88;20.48;;;2.20;99.90;;;;;;5029625;28;20678;-62
2024/03/01 07:41:21;;;;;;;28.85;19.90;;;2.30;99.90;;;;;;5029618;28;20313;-61
2024/03/01 07:43:48;;;;;;;36.20;20.90;;;2.30;99.90;;;;;;5029521;28;20214;-62
2024/03/01 07:46:14;;;;;;;35.88;21.55;;;2.40;99.90;;;;;;5028929;28;20237;-62
2024/03/01 07:48:44;;;;;;;29.30;20.73;;;2.50;99.90;;;;;;5029374;28;20233;-61
2024/03/01 07:51:12;;;;;;;28.60;21.23;;;2.60;99.90;;;;;;5029116;28;20689;-62
2024/03/01 07:53:40;;;;;;;28.63;19.23;;;2.70;99.90;;;;;;5028728;28;20218;-62
2024/03/01 07:56:07;;;;;;;30.65;20.80;;;2.70;99.90;;;;;;5020424;28;20235;-62
2024/03/01 07:58:34;;;;;;;31.70;19.63;;;2.80;99.90;;;;;;5008963;28;20212;-61
2024/03/01 08:01:02;;;;;;;38.10;22.33;;;3.00;99.90;;;;;;5008679;28;20200;-61
2024/03/01 08:03:28;;;;;;;43.63;27.77;;;3.10;99.90;;;;;;5008727;28;20226;-64
2024/03/01 08:05:55;;;;;;;33.22;21.00;;;3.30;99.90;;;;;;5005290;28;20241;-64
2024/03/01 08:08:41;;;;;;;36.28;22.85;;;3.40;99.90;;;;;;5008663;28;20206;-62
2024/03/01 08:11:09;;;;;;;40.42;25.20;;;3.60;99.90;;;;;;5006971;28;20690;-62
2024/03/01 08:13:36;;;;;;;39.97;23.30;;;3.70;99.90;;;;;;5022540;28;20218;-62
2024/03/01 08:16:05;;;;;;;30.13;24.05;;;3.90;99.90;;;;;;5002547;28;20223;-62
2024/03/01 08:18:37;;;;;;;33.38;23.70;;;4.10;99.90;;;;;;5020375;28;20699;-62
2024/03/01 08:21:05;;;;;;;32.28;22.00;;;4.20;99.90;;;;;;5016071;28;20610;-62
2024/03/01 08:23:37;;;;;;;29.67;22.98;;;4.40;99.90;;;;;;5009812;28;20232;-62
2024/03/01 08:26:10;;;;;;;34.35;23.35;;;4.50;99.90;;;;;;5005004;28;20239;-62
2024/03/01 08:28:40;;;;;;;43.05;28.25;;;4.60;99.90;;;;;;5005827;28;20211;-62
2024/03/01 08:31:22;;;;;;;31.90;23.67;;;4.70;99.90;;;;;;5006407;28;20239;-62
2024/03/01 08:33:49;;;;;;;35.53;24.20;;;4.80;99.90;;;;;;5006720;28;20226;-62
2024/03/01 08:36:15;;;;;;;33.38;22.30;;;4.90;99.90;;;;;;5009203;28;20246;-62
2024/03/01 08:39:06;;;;;;;35.58;24.05;;;5.10;99.90;;;;;;5004801;28;20204;-62
2024/03/01 08:41:34;;;;;;;37.70;27.27;;;5.20;99.90;;;;;;5000597;28;20207;-62
2024/03/01 08:44:01;;;;;;;42.08;24.88;;;5.30;99.90;;;;;;4991471;28;20207;-62
2024/03/01 08:46:31;;;;;;;37.20;26.30;;;5.40;99.90;;;;;;4996933;28;20236;-61
2024/03/01 08:48:59;;;;;;;33.70;23.80;;;5.50;99.90;;;;;;5003605;28;20219;-61
2024/03/01 08:51:26;;;;;;;34.83;24.83;;;5.70;99.90;;;;;;5004849;28;20645;-61
2024/03/01 08:54:02;;;;;;;42.58;23.85;;;5.80;99.90;;;;;;4997982;28;20567;-61
2024/03/01 08:56:36;;;;;;;31.58;23.77;;;5.90;99.90;;;;;;5007469;28;20285;-62
2024/03/01 08:59:24;;;;;;;34.88;25.25;;;6.10;99.90;;;;;;5009599;28;20214;-62
2024/03/01 09:01:51;;;;;;;33.70;25.30;;;6.20;99.90;;;;;;4999545;28;20238;-61
2024/03/01 09:04:25;;;;;;;35.08;27.05;;;6.30;99.90;;;;;;5006405;28;20221;-61
2024/03/01 09:07:07;;;;;;;42.72;28.17;;;6.40;99.90;;;;;;5007773;28;20231;-62
2024/03/01 09:09:35;;;;;;;39.33;25.80;;;6.50;99.90;;;;;;5007657;28;20214;-62
2024/03/01 09:12:04;;;;;;;41.00;27.30;;;6.60;99.90;;;;;;5007950;28;20377;-62
2024/03/01 09:14:33;;;;;;;39.03;28.13;;;6.70;99.90;;;;;;5006477;28;20211;-61
2024/03/01 09:17:01;;;;;;;33.20;24.27;;;6.80;99.90;;;;;;5007133;28;20215;-62
2024/03/01 09:19:36;;;;;;;41.80;27.90;;;6.90;99.90;;;;;;5007408;28;20243;-61
2024/03/01 09:22:04;;;;;;;36.60;25.65;;;7.00;99.90;;;;;;5007975;28;20215;-62
2024/03/01 09:24:37;;;;;;;38.20;26.42;;;7.10;99.90;;;;;;5006760;28;20236;-62
2024/03/01 09:27:11;;;;;;;41.15;29.55;;;7.20;99.90;;;;;;4999846;28;20646;-61
2024/03/01 09:29:38;;;;;;;35.75;29.55;;;7.30;99.90;;;;;;5000343;28;20215;-62
2024/03/01 09:32:06;;;;;;;39.70;26.63;;;7.40;99.90;;;;;;5007533;28;20215;-61
2024/03/01 09:34:35;;;;;;;35.57;25.40;;;7.50;99.90;;;;;;5006823;28;20208;-62
2024/03/01 09:37:04;;;;;;;30.90;25.08;;;7.60;99.90;;;;;;4994366;28;20534;-62
2024/03/01 09:39:33;;;;;;;32.43;25.27;;;7.70;99.90;;;;;;5007320;28;20210;-61
2024/03/01 09:42:28;;;;;;;38.95;26.33;;;7.90;99.90;;;;;;5018211;28;20577;-62
2024/03/01 09:45:34;;;;;;;30.85;25.52;;;7.90;99.90;;;;;;5004936;28;20236;-62
2024/03/01 09:48:12;;;;;;;32.13;24.40;;;8.00;99.90;;;;;;5006892;28;20200;-62
2024/03/01 09:50:51;;;;;;;40.67;28.48;;;8.10;99.90;;;;;;5007359;28;20698;-62
2024/03/01 09:53:34;;;;;;;37.47;25.87;;;8.20;99.90;;;;;;4997575;28;20215;-62
2024/03/01 09:56:11;;;;;;;43.15;27.40;;;8.20;99.90;;;;;;5010654;28;20905;-62
2024/03/01 09:58:47;;;;;;;38.87;27.20;;;8.40;99.90;;;;;;5010442;28;20208;-62
2024/03/01 10:01:18;;;;;;;34.87;24.60;;;8.50;99.90;;;;;;5010676;28;20450;-62
2024/03/01 10:03:53;;;;;;;36.90;24.47;;;8.60;99.90;;;;;;5009440;28;20833;-62
2024/03/01 10:06:52;;;;;;;32.77;25.20;;;8.70;99.90;;;;;;5005972;28;20938;-62
2024/03/01 10:09:30;;;;;;;35.10;25.03;;;8.70;99.90;;;;;;5009307;28;20899;-62
2024/03/01 10:12:15;;;;;;;40.33;26.00;;;8.80;99.90;;;;;;5010669;28;20979;-62
2024/03/01 10:14:51;;;;;;;35.20;26.70;;;8.90;99.90;;;;;;5007918;28;20457;-62
2024/03/01 10:17:26;;;;;;;37.80;25.93;;;8.90;99.90;;;;;;5010594;28;20447;-62
2024/03/01 10:20:20;;;;;;;38.23;25.00;;;9.00;99.90;;;;;;5010383;28;21003;-62
2024/03/01 10:22:58;;;;;;;31.10;24.50;;;9.00;99.90;;;;;;5009538;28;20539;-62
2024/03/01 10:25:42;;;;;;;26.60;23.70;;;9.00;99.90;;;;;;5010078;28;20997;-62
2024/03/01 10:28:24;;;;;;;29.80;22.43;;;9.10;99.90;;;;;;5009648;28;20458;-62
2024/03/01 10:31:00;;;;;;;34.00;25.17;;;9.20;99.90;;;;;;5010144;28;20505;-62
2024/03/01 10:33:41;;;;;;;27.77;24.13;;;9.20;99.90;;;;;;5009576;28;20958;-62
2024/03/01 10:36:12;;;;;;;30.17;23.60;;;9.20;99.90;;;;;;5006327;28;20540;-62
2024/03/01 10:38:51;;;;;;;34.20;23.57;;;9.30;99.90;;;;;;5009223;28;20969;-62
2024/03/01 10:41:25;;;;;;;30.77;24.27;;;9.40;99.90;;;;;;5009611;28;20929;-63
2024/03/01 10:44:07;;;;;;;33.90;24.90;;;9.50;99.90;;;;;;5009099;28;20451;-62
2024/03/01 10:46:43;;;;;;;33.83;24.17;;;9.50;99.90;;;;;;5008831;28;20552;-62
2024/03/01 10:49:14;;;;;;;31.77;25.30;;;9.60;99.90;;;;;;5009256;28;20893;-62
2024/03/01 10:51:49;;;;;;;31.40;22.03;;;9.60;99.90;;;;;;5009403;28;21268;-62
2024/03/01 10:54:18;;;;;;;34.10;26.30;;;9.60;99.90;;;;;;5008606;28;20446;-62
2024/03/01 10:56:47;;;;;;;33.70;25.57;;;9.70;99.90;;;;;;5005638;28;20549;-62
2024/03/01 10:59:19;;;;;;;31.40;24.80;;;9.70;99.90;;;;;;5009020;28;20454;-62
2024/03/01 11:01:52;;;;;;;29.03;21.50;;;9.70;99.90;;;;;;5006524;28;20451;-62
2024/03/01 11:04:29;;;;;;;27.03;23.90;;;9.70;99.90;;;;;;5007167;28;20558;-62
2024/03/01 11:07:07;;;;;;;26.30;21.33;;;9.70;99.90;;;;;;5005717;28;20500;-62
2024/03/01 11:09:40;;;;;;;28.93;22.57;;;9.80;99.90;;;;;;5005159;28;20825;-62
2024/03/01 11:12:13;;;;;;;32.00;23.57;;;9.70;99.90;;;;;;5009284;28;20971;-62
2024/03/01 11:14:47;;;;;;;33.73;21.80;;;9.80;99.90;;;;;;5008913;28;20884;-62
2024/03/01 11:17:17;;;;;;;29.77;20.30;;;9.80;99.90;;;;;;5001104;28;20448;-62
2024/03/01 11:19:47;;;;;;;31.10;21.47;;;9.90;99.90;;;;;;5009108;28;20822;-61
2024/03/01 11:22:22;;;;;;;37.73;24.70;;;9.90;99.90;;;;;;5008592;28;20537;-62
2024/03/01 11:24:55;;;;;;;29.47;23.23;;;9.90;99.90;;;;;;4996722;28;20470;-62
2024/03/01 11:27:26;;;;;;;34.00;24.80;;;9.90;99.90;;;;;;5007201;28;20508;-62
2024/03/01 11:30:00;;;;;;;31.53;24.57;;;10.00;99.90;;;;;;5006718;28;20558;-62
2024/03/01 11:32:32;;;;;;;38.93;24.47;;;10.00;99.90;;;;;;5008651;28;20449;-62
2024/03/01 11:35:07;;;;;;;40.83;27.50;;;10.10;99.90;;;;;;5008461;28;20474;-63
2024/03/01 11:37:42;;;;;;;35.43;25.10;;;10.10;99.90;;;;;;5009093;28;20450;-62
2024/03/01 11:40:15;;;;;;;36.20;25.83;;;10.10;99.90;;;;;;5005225;28;20458;-62
2024/03/01 11:42:59;;;;;;;34.80;28.10;;;10.10;99.90;;;;;;5004479;28;20924;-62
2024/03/01 11:45:31;;;;;;;32.97;24.53;;;10.20;99.90;;;;;;4997460;28;20463;-62
2024/03/01 11:48:17;;;;;;;32.97;24.90;;;10.30;99.90;;;;;;5004777;28;21024;-62
2024/03/01 11:50:55;;;;;;;35.40;28.17;;;10.30;99.90;;;;;;5005745;28;20541;-62
2024/03/01 11:53:40;;;;;;;27.90;22.53;;;10.40;99.90;;;;;;5007516;28;20453;-62
2024/03/01 11:56:47;;;;;;;30.90;24.93;;;10.50;99.90;;;;;;5004854;28;20496;-62
2024/03/01 11:59:27;;;;;;;32.80;25.70;;;10.50;99.90;;;;;;5001304;28;20553;-62
2024/03/01 12:02:02;;;;;;;32.33;22.40;;;10.50;99.90;;;;;;5008642;28;20447;-62
2024/03/01 12:04:43;;;;;;;32.83;22.73;;;10.50;99.90;;;;;;5007238;28;20863;-63
2024/03/01 12:07:24;;;;;;;27.93;22.83;;;10.50;99.90;;;;;;5008281;28;20489;-62
2024/03/01 12:10:02;;;;;;;29.43;23.37;;;10.60;99.90;;;;;;5006009;28;20443;-63
2024/03/01 12:12:41;;;;;;;27.30;20.37;;;10.60;99.90;;;;;;5007691;28;20438;-62
2024/03/01 12:15:12;;;;;;;29.93;22.17;;;10.60;99.90;;;;;;5007898;28;20470;-62
2024/03/01 12:17:46;;;;;;;30.93;21.47;;;10.50;99.90;;;;;;5008115;28;20942;-63
2024/03/01 12:20:16;;;;;;;26.27;20.23;;;10.50;99.90;;;;;;5008334;28;20442;-63
2024/03/01 12:23:06;;;;;;;25.70;19.73;;;10.50;99.90;;;;;;5006154;28;20452;-62
2024/03/01 12:25:33;;;;;;;26.60;19.80;;;10.40;99.90;;;;;;5008111;28;20466;-62
2024/03/01 12:28:23;;;;;;;25.87;19.63;;;10.40;99.90;;;;;;5007988;28;20497;-62
2024/03/01 12:31:03;;;;;;;25.83;17.83;;;10.40;99.90;;;;;;5007610;28;20530;-62
2024/03/01 12:33:46;;;;;;;18.00;16.03;;;10.50;99.90;;;;;;5007100;28;20537;-62
2024/03/01 12:36:26;;;;;;;21.03;17.20;;;10.50;99.90;;;;;;5056071;22;20922;-61
2024/03/01 12:38:58;;;;;;;19.60;14.97;;;10.60;99.90;;;;;;5067783;28;20447;-61
2024/03/01 12:41:36;;;;;;;17.50;14.97;;;10.70;99.90;;;;;;5067689;28;20440;-61
2024/03/01 12:44:14;;;;;;;21.00;15.67;;;10.70;99.90;;;;;;5067448;28;20451;-61
2024/03/01 12:47:24;;;;;;;21.93;15.57;;;10.70;99.90;;;;;;5067265;28;20483;-61
2024/03/01 12:50:05;;;;;;;18.97;13.07;;;10.70;99.90;;;;;;5055853;28;20460;-61
2024/03/01 12:53:02;;;;;;;18.63;14.50;;;10.70;99.90;;;;;;5065336;28;20440;-61